createdAt,value
2023-01-29T00:00:10.388Z,78.03
2023-01-29T00:03:00.910Z,78.12
2023-01-29T00:05:28.834Z,78.11
2023-01-29T00:07:57.279Z,78.16
2023-01-29T00:10:26.569Z,78.16
2023-01-29T00:12:55.160Z,78.06
2023-01-29T00:15:23.633Z,78.01
2023-01-29T00:17:51.789Z,77.96
2023-01-29T00:20:20.097Z,77.98
2023-01-29T00:22:47.983Z,77.98
2023-01-29T00:25:16.966Z,77.90
2023-01-29T00:27:45.140Z,78.12
2023-01-29T00:30:13.813Z,77.99
2023-01-29T00:32:42.184Z,77.83
2023-01-29T00:35:10.507Z,77.88
2023-01-29T00:37:38.614Z,77.98
2023-01-29T00:40:07.029Z,77.97
2023-01-29T00:43:10.022Z,77.94
2023-01-29T00:45:39.695Z,77.98
2023-01-29T00:48:07.579Z,78.04
2023-01-29T00:50:35.381Z,78.07
2023-01-29T00:53:03.298Z,78.18
2023-01-29T00:55:31.355Z,78.29
2023-01-29T00:57:59.175Z,78.34
2023-01-29T01:00:27.400Z,78.35
2023-01-29T01:03:07.784Z,78.36
2023-01-29T01:05:37.193Z,78.44
2023-01-29T01:08:25.691Z,78.51
2023-01-29T01:11:03.833Z,78.52
2023-01-29T01:13:33.847Z,78.51
2023-01-29T01:16:01.777Z,78.43
2023-01-29T01:18:30.479Z,78.39
2023-01-29T01:20:59.569Z,78.51
2023-01-29T01:23:27.899Z,78.60
2023-01-29T01:25:55.817Z,78.65
2023-01-29T01:28:23.774Z,78.71
2023-01-29T01:30:51.752Z,78.72
2023-01-29T01:33:20.272Z,78.73
2023-01-29T01:35:48.152Z,78.74
2023-01-29T01:38:16.001Z,78.74
2023-01-29T01:40:46.138Z,78.85
2023-01-29T01:43:14.057Z,78.85
2023-01-29T01:45:44.041Z,78.85
2023-01-29T01:48:17.218Z,78.85
2023-01-29T01:50:57.070Z,78.91
2023-01-29T01:53:34.518Z,78.95
2023-01-29T01:56:06.889Z,79.08
2023-01-29T01:59:02.132Z,79.14
2023-01-29T02:01:30.109Z,79.13
2023-01-29T02:04:22.380Z,79.19
2023-01-29T02:07:10.970Z,79.19
2023-01-29T02:09:49.206Z,79.23
2023-01-29T02:12:17.359Z,79.28
2023-01-29T02:14:46.005Z,79.32
2023-01-29T02:17:19.519Z,79.34
2023-01-29T02:19:59.671Z,79.37
2023-01-29T02:22:39.591Z,79.35
2023-01-29T02:25:27.595Z,79.31
2023-01-29T02:28:17.432Z,79.31
2023-01-29T02:30:50.195Z,79.37
2023-01-29T02:37:09.601Z,79.39
2023-01-29T02:40:01.688Z,79.38
2023-01-29T02:42:38.834Z,79.40
2023-01-29T02:45:19.320Z,79.39
2023-01-29T02:47:51.769Z,79.46
2023-01-29T02:50:34.078Z,79.48
2023-01-29T02:53:14.041Z,79.46
2023-01-29T02:55:48.721Z,79.50
2023-01-29T02:58:39.073Z,79.53
2023-01-29T03:01:13.063Z,79.60
2023-01-29T03:03:45.722Z,79.58
2023-01-29T03:06:46.010Z,79.57
2023-01-29T03:09:38.655Z,79.63
2023-01-29T03:12:28.985Z,79.61
2023-01-29T03:15:11.678Z,79.67
2023-01-29T03:18:11.920Z,79.72
2023-01-29T03:20:48.196Z,79.76
2023-01-29T03:23:38.006Z,79.72
2023-01-29T03:26:30.191Z,79.70
2023-01-29T03:29:19.811Z,79.69
2023-01-29T03:32:08.852Z,79.72
2023-01-29T03:34:43.966Z,79.76
2023-01-29T03:37:24.126Z,79.74
2023-01-29T03:39:52.607Z,79.74
2023-01-29T03:42:32.148Z,79.76
2023-01-29T03:45:11.852Z,79.79
2023-01-29T03:48:12.266Z,79.77
2023-01-29T03:51:18.136Z,79.77
2023-01-29T03:53:51.435Z,79.82
2023-01-29T03:56:25.606Z,79.86
2023-01-29T03:59:27.342Z,79.89
2023-01-29T04:03:07.610Z,79.96
2023-01-29T04:06:09.856Z,79.94
2023-01-29T04:08:51.497Z,80.01
2023-01-29T04:11:22.318Z,80.06
2023-01-29T04:13:52.231Z,80.04
2023-01-29T04:16:35.778Z,80.01
2023-01-29T04:19:24.280Z,79.93
2023-01-29T04:22:02.079Z,79.93
2023-01-29T04:24:31.571Z,79.93
2023-01-29T04:27:43.253Z,79.87
2023-01-29T04:34:57.419Z,79.84
2023-01-29T04:37:31.942Z,79.90
2023-01-29T04:40:23.694Z,79.90
2023-01-29T04:43:08.881Z,79.89
2023-01-29T04:45:49.070Z,79.83
2023-01-29T04:48:49.315Z,79.83
2023-01-29T04:51:20.516Z,79.85
2023-01-29T04:53:52.674Z,79.75
2023-01-29T04:56:23.519Z,79.74
2023-01-29T04:59:09.879Z,79.70
2023-01-29T05:01:39.164Z,79.66
2023-01-29T05:04:11.661Z,79.71
2023-01-29T05:06:41.652Z,79.77
2023-01-29T05:09:09.884Z,79.80
2023-01-29T05:11:37.880Z,79.77
2023-01-29T05:14:10.072Z,79.72
2023-01-29T05:16:46.183Z,79.74
2023-01-29T05:19:16.901Z,79.73
2023-01-29T05:21:48.138Z,79.77
2023-01-29T05:24:21.691Z,79.78
2023-01-29T05:27:10.560Z,79.78
2023-01-29T05:29:41.731Z,79.83
2023-01-29T05:32:09.553Z,79.83
2023-01-29T05:34:37.797Z,79.86
2023-01-29T05:37:05.644Z,79.88
2023-01-29T05:39:33.478Z,79.89
2023-01-29T05:42:02.082Z,79.90
2023-01-29T05:44:30.030Z,79.82
2023-01-29T05:46:57.845Z,79.92
2023-01-29T05:49:26.019Z,79.96
2023-01-29T05:51:53.970Z,79.93
2023-01-29T05:54:21.908Z,79.85
2023-01-29T05:56:55.574Z,79.67
2023-01-29T05:59:32.417Z,79.63
2023-01-29T06:02:00.385Z,79.62
2023-01-29T06:04:28.459Z,79.64
2023-01-29T06:06:56.318Z,79.59
2023-01-29T06:09:24.451Z,79.59
2023-01-29T06:11:52.310Z,79.59
2023-01-29T06:14:20.262Z,79.60
2023-01-29T06:16:48.067Z,79.58
2023-01-29T06:19:15.964Z,79.41
2023-01-29T06:21:43.982Z,79.43
2023-01-29T06:24:11.959Z,79.41
2023-01-29T06:26:39.882Z,79.38
2023-01-29T06:29:07.703Z,79.42
2023-01-29T06:31:39.676Z,79.42
2023-01-29T06:34:08.397Z,79.43
2023-01-29T06:36:36.310Z,79.39
2023-01-29T06:39:04.800Z,79.41
2023-01-29T06:41:32.875Z,79.44
2023-01-29T06:44:00.819Z,79.48
2023-01-29T06:46:28.788Z,79.54
2023-01-29T06:49:00.074Z,79.50
2023-01-29T06:51:28.045Z,79.49
2023-01-29T06:53:56.461Z,79.51
2023-01-29T06:56:27.685Z,79.43
2023-01-29T06:58:55.532Z,79.45
2023-01-29T07:01:35.589Z,79.51
2023-01-29T07:04:04.258Z,79.51
2023-01-29T07:06:32.825Z,79.51
2023-01-29T07:09:01.025Z,79.42
2023-01-29T07:11:28.969Z,79.33
2023-01-29T07:13:56.966Z,79.33
2023-01-29T07:16:26.310Z,79.38
2023-01-29T07:18:54.634Z,79.33
2023-01-29T07:21:22.582Z,79.23
2023-01-29T07:23:50.804Z,79.18
2023-01-29T07:26:18.808Z,79.04
2023-01-29T07:28:46.636Z,78.99
2023-01-29T07:31:15.419Z,78.91
2023-01-29T07:33:44.685Z,78.88
2023-01-29T07:36:15.890Z,78.74
2023-01-29T07:38:43.787Z,78.76
2023-01-29T07:41:11.834Z,78.71
2023-01-29T07:43:39.955Z,78.69
2023-01-29T07:46:08.396Z,78.64
2023-01-29T07:48:36.612Z,78.53
2023-01-29T07:51:05.596Z,78.32
2023-01-29T07:53:33.487Z,78.29
2023-01-29T07:56:01.339Z,78.30
2023-01-29T07:58:29.154Z,78.33
2023-01-29T08:00:56.990Z,78.38
2023-01-29T08:03:25.189Z,78.39
2023-01-29T08:05:53.122Z,78.32
2023-01-29T08:08:21.088Z,78.26
2023-01-29T08:10:48.897Z,77.93
2023-01-29T08:13:16.898Z,77.97
2023-01-29T08:15:45.697Z,77.81
2023-01-29T08:18:14.913Z,77.93
2023-01-29T08:20:42.841Z,77.98
2023-01-29T08:23:16.558Z,77.97
2023-01-29T08:25:44.863Z,77.82
2023-01-29T08:28:12.971Z,77.76
2023-01-29T08:30:41.220Z,77.95
2023-01-29T08:33:09.116Z,77.80
2023-01-29T08:35:37.554Z,77.70
2023-01-29T08:38:05.738Z,77.63
2023-01-29T08:40:35.192Z,77.68
2023-01-29T08:43:09.374Z,77.68
2023-01-29T08:45:41.179Z,77.51
2023-01-29T08:48:10.297Z,77.46
2023-01-29T08:50:38.517Z,77.35
2023-01-29T08:53:08.968Z,77.22
2023-01-29T08:55:38.617Z,76.95
2023-01-29T08:58:08.382Z,76.90
2023-01-29T09:00:36.456Z,76.67
2023-01-29T09:03:05.265Z,76.50
2023-01-29T09:05:34.994Z,76.52
2023-01-29T09:08:03.227Z,76.46
2023-01-29T09:10:31.420Z,76.31
2023-01-29T09:12:59.355Z,76.56
2023-01-29T09:15:27.745Z,76.67
2023-01-29T09:17:55.830Z,76.43
2023-01-29T09:20:23.957Z,76.49
2023-01-29T09:22:53.908Z,76.21
2023-01-29T09:25:21.849Z,75.93
2023-01-29T09:27:49.704Z,75.71
2023-01-29T09:30:18.358Z,75.50
2023-01-29T09:32:54.589Z,75.45
2023-01-29T09:35:23.813Z,75.43
2023-01-29T09:37:52.981Z,74.93
2023-01-29T09:40:26.765Z,74.98
2023-01-29T09:43:01.976Z,75.16
2023-01-29T09:45:30.623Z,74.97
2023-01-29T09:48:02.318Z,74.97
2023-01-29T09:50:40.151Z,74.73
2023-01-29T09:53:29.617Z,74.81
2023-01-29T09:56:14.512Z,74.99
2023-01-29T09:58:43.875Z,75.08
2023-01-29T10:01:23.841Z,75.28
2023-01-29T10:04:13.685Z,75.35
2023-01-29T10:06:44.635Z,75.31
2023-01-29T10:09:44.450Z,75.49
2023-01-29T10:12:18.094Z,74.76
2023-01-29T10:14:58.274Z,74.75
2023-01-29T10:17:51.103Z,74.91
2023-01-29T10:20:44.020Z,75.15
2023-01-29T10:23:31.489Z,75.21
2023-01-29T10:26:01.047Z,75.16
2023-01-29T10:28:37.282Z,75.18
2023-01-29T10:31:12.587Z,75.36
2023-01-29T10:33:49.211Z,75.78
2023-01-29T10:36:34.457Z,76.07
2023-01-29T10:39:02.311Z,75.99
2023-01-29T10:41:53.969Z,76.31
2023-01-29T10:44:38.021Z,76.75
2023-01-29T10:47:33.190Z,77.01
2023-01-29T10:50:13.143Z,77.13
2023-01-29T10:52:59.560Z,77.14
2023-01-29T10:55:36.685Z,77.34
2023-01-29T10:58:16.861Z,77.43
2023-01-29T11:04:35.420Z,77.56
2023-01-29T11:07:03.259Z,77.92
2023-01-29T11:09:46.392Z,78.33
2023-01-29T11:12:22.796Z,78.63
2023-01-29T11:15:07.167Z,79.01
2023-01-29T11:17:35.029Z,79.14
2023-01-29T11:20:06.113Z,79.13
2023-01-29T11:22:34.336Z,79.10
2023-01-29T11:25:21.679Z,78.99
2023-01-29T11:27:52.923Z,79.06
2023-01-29T11:30:25.784Z,79.35
2023-01-29T11:33:17.991Z,79.81
2023-01-29T11:35:46.592Z,79.91
2023-01-29T11:38:18.662Z,79.83
2023-01-29T11:40:46.840Z,79.79
2023-01-29T11:43:27.823Z,79.64
2023-01-29T11:46:12.144Z,79.83
2023-01-29T11:48:51.759Z,80.01
2023-01-29T11:51:29.855Z,80.28
2023-01-29T11:54:01.165Z,80.48
2023-01-29T11:56:39.982Z,80.56
2023-01-29T11:59:35.304Z,80.46
2023-01-29T12:02:18.278Z,80.56
2023-01-29T12:04:47.888Z,80.76
2023-01-29T12:07:18.323Z,80.87
2023-01-29T12:09:56.059Z,81.03
2023-01-29T12:12:35.541Z,81.13
2023-01-29T12:15:26.464Z,81.28
2023-01-29T12:18:30.318Z,81.42
2023-01-29T12:21:04.803Z,81.61
2023-01-29T12:23:48.168Z,81.80
2023-01-29T12:26:21.717Z,81.84
2023-01-29T12:29:15.002Z,81.79
2023-01-29T12:32:19.334Z,81.84
2023-01-29T12:35:00.900Z,81.94
2023-01-29T12:38:07.742Z,82.02
2023-01-29T12:40:47.732Z,82.30
2023-01-29T12:43:18.531Z,82.46
2023-01-29T12:45:52.920Z,82.57
2023-01-29T12:48:29.640Z,82.64
2023-01-29T12:51:06.733Z,82.73
2023-01-29T12:53:47.515Z,82.96
2023-01-29T12:56:39.624Z,83.13
2023-01-29T12:59:34.353Z,83.02
2023-01-29T13:02:38.685Z,83.06
2023-01-29T13:05:43.640Z,83.16
2023-01-29T13:08:30.849Z,83.18
2023-01-29T13:11:02.310Z,83.40
2023-01-29T13:13:41.031Z,83.57
2023-01-29T13:16:12.628Z,83.87
2023-01-29T13:18:47.838Z,84.23
2023-01-29T13:21:22.267Z,84.47
2023-01-29T13:23:53.474Z,84.74
2023-01-29T13:26:23.223Z,84.76
2023-01-29T13:28:52.426Z,84.78
2023-01-29T13:31:37.884Z,85.19
2023-01-29T13:34:17.810Z,85.49
2023-01-29T13:36:52.937Z,85.78
2023-01-29T13:39:27.345Z,85.86
2023-01-29T13:41:57.116Z,85.86
2023-01-29T13:44:37.103Z,85.71
2023-01-29T13:47:08.919Z,85.58
2023-01-29T13:49:40.668Z,85.76
2023-01-29T13:52:26.842Z,85.92
2023-01-29T13:55:15.367Z,86.02
2023-01-29T13:57:49.039Z,86.15
2023-01-29T14:00:25.028Z,86.35
2023-01-29T14:02:55.861Z,86.53
2023-01-29T14:05:32.672Z,86.62
2023-01-29T14:08:27.114Z,86.65
2023-01-29T14:11:22.048Z,86.57
2023-01-29T14:13:50.147Z,86.61
2023-01-29T14:16:18.022Z,86.68
2023-01-29T14:19:18.103Z,86.86
2023-01-29T14:21:50.489Z,87.05
2023-01-29T14:24:22.183Z,87.27
2023-01-29T14:26:55.358Z,87.40
2023-01-29T14:29:34.215Z,87.43
2023-01-29T14:32:05.963Z,87.61
2023-01-29T14:35:01.112Z,87.66
2023-01-29T14:37:36.702Z,87.76
2023-01-29T14:40:23.987Z,87.90
2023-01-29T14:43:08.076Z,87.92
2023-01-29T14:45:44.564Z,87.90
2023-01-29T14:48:12.401Z,87.93
2023-01-29T14:50:43.841Z,87.97
2023-01-29T14:53:18.478Z,87.95
2023-01-29T14:56:01.667Z,87.97
2023-01-29T14:58:49.197Z,88.06
2023-01-29T15:01:27.031Z,88.10
2023-01-29T15:04:07.650Z,88.22
2023-01-29T15:06:44.800Z,88.35
2023-01-29T15:09:36.876Z,88.56
2023-01-29T15:12:26.533Z,88.65
2023-01-29T15:15:36.692Z,88.66
2023-01-29T15:18:08.109Z,88.69
2023-01-29T15:20:39.097Z,88.81
2023-01-29T15:23:44.185Z,88.85
2023-01-29T15:26:17.897Z,88.90
2023-01-29T15:29:02.114Z,88.90
2023-01-29T15:31:32.226Z,88.93
2023-01-29T15:34:06.218Z,88.96
2023-01-29T15:36:36.667Z,89.01
2023-01-29T15:39:22.930Z,88.94
2023-01-29T15:42:04.382Z,89.10
2023-01-29T15:44:34.905Z,89.27
2023-01-29T15:47:03.026Z,89.40
2023-01-29T15:49:34.233Z,89.48
2023-01-29T15:52:15.988Z,89.55
2023-01-29T15:54:44.541Z,89.56
2023-01-29T15:57:23.100Z,89.49
2023-01-29T16:02:46.294Z,89.40
2023-01-29T16:05:23.158Z,89.32
2023-01-29T16:07:52.536Z,89.28
2023-01-29T16:10:23.022Z,89.25
2023-01-29T16:12:52.245Z,89.28
2023-01-29T16:15:54.013Z,89.25
2023-01-29T16:18:28.389Z,89.25
2023-01-29T16:20:58.657Z,89.18
2023-01-29T16:23:29.702Z,89.26
2023-01-29T16:26:05.169Z,89.33
2023-01-29T16:28:34.394Z,89.32
2023-01-29T16:31:04.310Z,89.44
2023-01-29T16:33:38.412Z,89.52
2023-01-29T16:36:22.542Z,89.55
2023-01-29T16:38:54.943Z,89.72
2023-01-29T16:41:23.972Z,89.72
2023-01-29T16:44:04.519Z,89.70
2023-01-29T16:46:34.532Z,89.61
2023-01-29T16:49:23.743Z,89.67
2023-01-29T16:51:52.524Z,89.69
2023-01-29T16:54:33.783Z,89.68
2023-01-29T16:57:02.149Z,89.76
2023-01-29T16:59:35.007Z,89.82
2023-01-29T17:02:04.608Z,89.83
2023-01-29T17:04:33.257Z,89.86
2023-01-29T17:07:02.611Z,89.91
2023-01-29T17:09:34.087Z,89.94
2023-01-29T17:12:05.414Z,89.90
2023-01-29T17:14:34.466Z,89.88
2023-01-29T17:17:05.179Z,89.82
2023-01-29T17:19:33.316Z,89.82
2023-01-29T17:22:04.730Z,89.83
2023-01-29T17:24:32.502Z,89.79
2023-01-29T17:27:02.233Z,89.77
2023-01-29T17:29:31.737Z,89.82
2023-01-29T17:32:00.313Z,89.78
2023-01-29T17:34:28.462Z,89.78
2023-01-29T17:36:57.526Z,89.87
2023-01-29T17:39:25.771Z,89.90
2023-01-29T17:41:55.792Z,89.93
2023-01-29T17:44:28.101Z,89.97
2023-01-29T17:46:56.132Z,89.96
2023-01-29T17:49:25.266Z,89.96
2023-01-29T17:51:55.125Z,89.99
2023-01-29T17:54:23.921Z,90.01
2023-01-29T17:56:53.137Z,90.04
2023-01-29T17:59:27.759Z,90.06
2023-01-29T18:01:55.828Z,90.06
2023-01-29T18:04:23.883Z,90.00
2023-01-29T18:06:53.238Z,90.02
2023-01-29T18:09:21.859Z,90.04
2023-01-29T18:11:51.122Z,90.04
2023-01-29T18:14:19.199Z,89.98
2023-01-29T18:16:47.161Z,89.99
2023-01-29T18:19:31.220Z,89.97
2023-01-29T18:21:59.466Z,89.95
2023-01-29T18:24:31.068Z,89.94
2023-01-29T18:26:58.820Z,89.94
2023-01-29T18:29:30.130Z,89.95
2023-01-29T18:31:58.449Z,89.95
2023-01-29T18:34:26.380Z,89.96
2023-01-29T18:36:54.160Z,89.95
2023-01-29T18:39:22.127Z,89.93
2023-01-29T18:41:49.895Z,89.94
2023-01-29T18:44:17.818Z,89.95
2023-01-29T18:46:45.740Z,89.95
2023-01-29T18:49:13.589Z,89.94
2023-01-29T18:51:41.434Z,89.90
2023-01-29T18:54:13.105Z,89.87
2023-01-29T18:57:13.064Z,89.88
2023-01-29T18:59:28.923Z,89.88
2023-01-29T19:04:35.345Z,89.85
2023-01-29T19:07:04.841Z,89.81
2023-01-29T19:09:32.874Z,89.84
2023-01-29T19:12:00.816Z,89.86
2023-01-29T19:14:28.734Z,89.88
2023-01-29T19:16:57.101Z,89.88
2023-01-29T19:19:25.621Z,89.91
2023-01-29T19:21:54.328Z,89.92
2023-01-29T19:24:22.953Z,89.92
2023-01-29T19:26:51.322Z,89.93
2023-01-29T19:29:20.288Z,89.92
2023-01-29T19:31:48.471Z,89.91
2023-01-29T19:34:16.406Z,89.92
2023-01-29T19:36:44.471Z,89.93
2023-01-29T19:39:12.849Z,89.92
2023-01-29T19:41:41.964Z,89.94
2023-01-29T19:44:11.568Z,89.94
2023-01-29T19:46:39.474Z,89.94
2023-01-29T19:49:07.409Z,89.92
2023-01-29T19:51:35.439Z,89.93
2023-01-29T19:54:04.131Z,89.94
2023-01-29T19:56:34.594Z,89.94
2023-01-29T19:59:02.736Z,89.95
2023-01-29T20:01:31.081Z,89.97
2023-01-29T20:03:58.955Z,89.99
2023-01-29T20:06:30.958Z,90.00
2023-01-29T20:09:26.529Z,89.99
2023-01-29T20:11:54.411Z,89.97
2023-01-29T20:14:22.426Z,89.92
2023-01-29T20:16:50.329Z,89.94
2023-01-29T20:19:20.099Z,89.95
2023-01-29T20:21:49.022Z,89.94
2023-01-29T20:24:17.744Z,89.95
2023-01-29T20:26:45.699Z,89.94
2023-01-29T20:29:13.676Z,89.96
2023-01-29T20:31:41.774Z,89.99
2023-01-29T20:34:09.983Z,90.00
2023-01-29T20:36:38.030Z,90.01
2023-01-29T20:39:05.968Z,90.01
2023-01-29T20:41:34.274Z,90.01
2023-01-29T20:44:02.334Z,90.02
2023-01-29T20:46:30.526Z,90.03
2023-01-29T20:48:58.710Z,90.04
2023-01-29T20:51:26.676Z,90.05
2023-01-29T20:53:55.606Z,90.06
2023-01-29T20:56:35.951Z,90.06
2023-01-29T20:59:09.642Z,90.07
2023-01-29T21:01:37.570Z,90.08
2023-01-29T21:04:05.472Z,90.10
2023-01-29T21:06:33.740Z,90.09
2023-01-29T21:09:01.711Z,90.09
2023-01-29T21:11:30.007Z,90.11
2023-01-29T21:13:59.175Z,90.11
2023-01-29T21:16:27.517Z,90.14
2023-01-29T21:18:59.683Z,90.18
2023-01-29T21:21:28.034Z,90.20
2023-01-29T21:23:56.231Z,90.21
2023-01-29T21:26:24.544Z,90.19
2023-01-29T21:28:52.581Z,90.21
2023-01-29T21:31:20.793Z,90.24
2023-01-29T21:33:48.726Z,90.26
2023-01-29T21:36:17.502Z,90.30
2023-01-29T21:38:45.532Z,90.32
2023-01-29T21:41:13.560Z,90.32
2023-01-29T21:43:41.480Z,90.35
2023-01-29T21:46:12.026Z,90.37
2023-01-29T21:48:41.229Z,90.38
2023-01-29T21:51:09.265Z,90.37
2023-01-29T21:53:37.358Z,90.38
2023-01-29T21:56:06.125Z,90.41
2023-01-29T21:58:34.023Z,90.44
2023-01-29T22:01:35.187Z,90.48
2023-01-29T22:03:49.796Z,90.50
2023-01-29T22:06:18.256Z,90.51
2023-01-29T22:08:49.055Z,90.56
2023-01-29T22:11:17.047Z,90.62
2023-01-29T22:13:45.259Z,90.65
2023-01-29T22:16:13.148Z,90.69
2023-01-29T22:18:40.995Z,90.72
2023-01-29T22:21:09.078Z,90.73
2023-01-29T22:23:38.023Z,90.75
2023-01-29T22:26:07.209Z,90.75
2023-01-29T22:28:35.364Z,90.78
2023-01-29T22:31:05.383Z,90.81
2023-01-29T22:33:33.607Z,90.83
2023-01-29T22:36:01.846Z,90.86
2023-01-29T22:38:30.248Z,90.90
2023-01-29T22:41:00.441Z,90.91
2023-01-29T22:43:29.408Z,90.94
2023-01-29T22:45:57.487Z,90.97
2023-01-29T22:48:25.599Z,91.00
2023-01-29T22:51:09.672Z,91.01
2023-01-29T22:53:38.602Z,91.00
2023-01-29T22:56:07.365Z,91.00
2023-01-29T22:58:35.373Z,90.99
2023-01-29T23:01:04.047Z,90.99
2023-01-29T23:03:32.104Z,90.98
2023-01-29T23:06:00.075Z,90.97
2023-01-29T23:08:28.506Z,90.94
2023-01-29T23:11:13.915Z,90.94
2023-01-29T23:13:53.578Z,90.91
2023-01-29T23:16:26.266Z,90.90
2023-01-29T23:18:56.572Z,90.90
2023-01-29T23:21:25.360Z,90.89
2023-01-29T23:23:55.411Z,90.84
2023-01-29T23:26:42.055Z,90.82
2023-01-29T23:29:10.604Z,90.81
2023-01-29T23:31:38.941Z,90.79
2023-01-29T23:34:07.219Z,90.76
2023-01-29T23:36:35.163Z,90.77
2023-01-29T23:39:03.097Z,90.76
2023-01-29T23:41:30.926Z,90.76
2023-01-29T23:43:58.931Z,90.76
2023-01-29T23:46:27.211Z,90.75
2023-01-29T23:48:55.107Z,90.74
2023-01-29T23:51:24.238Z,90.69
2023-01-29T23:53:52.905Z,90.67
2023-01-29T23:56:20.898Z,90.66
2023-01-29T23:58:53.506Z,90.64
